Time;durP1;ratioP1;P1;durP2;ratioP2;P2;SDS_P1;SDS_P2;PMS_P1;PMS_P2;Temp;Humidity;BMP_temperature;BMP_pressure;BME280_temperature;BME280_humidity;BME280_pressure;Samples;Min_cycle;Max_cycle;Signal;HPM_P1;HPM_P2
2022/01/05 00:01:47;;;;;;;;;;;7.20;96.70;;;;;;5033281;28;19913;-71
2022/01/05 00:04:13;;;;;;;;;;;7.30;96.90;;;;;;5030580;28;19986;-70
2022/01/05 00:06:38;;;;;;;;;;;7.30;96.80;;;;;;5012293;28;19913;-70
2022/01/05 00:09:04;;;;;;;;;;;7.30;96.80;;;;;;5014281;28;19914;-70
2022/01/05 00:11:29;;;;;;;;;;;7.10;96.70;;;;;;5012527;28;19914;-70
2022/01/05 00:13:56;;;;;;;;;;;7.20;96.80;;;;;;5016032;28;20331;-71
2022/01/05 00:16:22;;;;;;;;;;;7.10;96.80;;;;;;5029998;28;20366;-71
2022/01/05 00:18:47;;;;;;;;;;;7.10;96.90;;;;;;5030667;28;19917;-70
2022/01/05 00:21:13;;;;;;;;;;;7.20;96.90;;;;;;5013523;28;20369;-70
2022/01/05 00:23:38;;;;;;;;;;;7.10;97.00;;;;;;5020975;28;19928;-71
2022/01/05 00:26:05;;;;;;;;;;;7.20;97.00;;;;;;5032969;28;20067;-71
2022/01/05 00:28:30;;;;;;;;;;;7.30;97.00;;;;;;5033002;28;19913;-70
2022/01/05 00:30:56;;;;;;;;;;;7.30;96.80;;;;;;5031698;28;19928;-70
2022/01/05 00:33:21;;;;;;;;;;;7.10;96.70;;;;;;5028403;28;20285;-70
2022/01/05 00:35:47;;;;;;;;;;;7.10;96.90;;;;;;5013325;28;20290;-70
2022/01/05 00:38:12;;;;;;;;;;;7.10;96.70;;;;;;5013286;28;19913;-70
2022/01/05 00:40:38;;;;;;;;;;;7.10;96.70;;;;;;5013068;28;19914;-71
2022/01/05 00:43:03;;;;;;;;;;;7.10;96.60;;;;;;5011928;28;19972;-71
2022/01/05 00:45:29;;;;;;;;;;;7.10;96.60;;;;;;5012857;28;20308;-71
2022/01/05 00:47:54;;;;;;;;;;;7.10;96.60;;;;;;5013147;28;19924;-71
2022/01/05 00:50:20;;;;;;;;;;;6.90;96.60;;;;;;5011746;28;19920;-70
2022/01/05 00:52:45;;;;;;;;;;;6.90;96.40;;;;;;5012781;28;20024;-71
2022/01/05 00:55:11;;;;;;;;;;;6.90;96.40;;;;;;5013501;28;20489;-71
2022/01/05 00:57:36;;;;;;;;;;;6.90;96.40;;;;;;5012891;28;20016;-71
2022/01/05 01:00:03;;;;;;;;;;;7.00;96.40;;;;;;5013035;28;19913;-71
2022/01/05 01:02:29;;;;;;;;;;;6.90;96.30;;;;;;5012458;28;19921;-71
2022/01/05 01:04:54;;;;;;;;;;;6.90;96.20;;;;;;5012458;28;20268;-71
2022/01/05 01:07:20;;;;;;;;;;;7.00;96.30;;;;;;5029293;28;19945;-71
2022/01/05 01:09:45;;;;;;;;;;;7.00;96.20;;;;;;5030960;28;20381;-71
2022/01/05 01:12:11;;;;;;;;;;;7.00;96.10;;;;;;5032940;28;20016;-71
2022/01/05 01:14:36;;;;;;;;;;;7.00;96.10;;;;;;5025163;28;20244;-71
2022/01/05 01:17:02;;;;;;;;;;;7.10;96.20;;;;;;5012354;28;19920;-71
2022/01/05 01:19:27;;;;;;;;;;;7.10;96.00;;;;;;5012241;28;20279;-71
2022/01/05 01:21:53;;;;;;;;;;;7.00;96.10;;;;;;5011080;28;20556;-70
2022/01/05 01:24:19;;;;;;;;;;;6.90;96.10;;;;;;5012663;28;19913;-71
2022/01/05 01:26:44;;;;;;;;;;;6.90;96.10;;;;;;5012143;28;19953;-71
2022/01/05 01:29:10;;;;;;;;;;;6.90;96.10;;;;;;5012030;28;20004;-71
2022/01/05 01:31:35;;;;;;;;;;;6.90;96.20;;;;;;5012007;28;19944;-70
2022/01/05 01:34:01;;;;;;;;;;;6.90;96.20;;;;;;5011917;28;19930;-71
2022/01/05 01:36:26;;;;;;;;;;;6.90;96.20;;;;;;5016859;28;20000;-70
2022/01/05 01:38:52;;;;;;;;;;;6.90;96.10;;;;;;5030499;28;19909;-70
2022/01/05 01:41:18;;;;;;;;;;;6.80;96.20;;;;;;5031530;28;19924;-71
2022/01/05 01:43:43;;;;;;;;;;;6.80;96.30;;;;;;5031648;28;19913;-71
2022/01/05 01:46:09;;;;;;;;;;;6.80;96.30;;;;;;5029393;28;19975;-72
2022/01/05 01:48:34;;;;;;;;;;;6.90;96.30;;;;;;5011785;28;19924;-70
2022/01/05 01:51:00;;;;;;;;;;;6.80;96.30;;;;;;5011544;28;19968;-70
2022/01/05 01:53:25;;;;;;;;;;;6.70;96.40;;;;;;5012935;28;19921;-70
2022/01/05 01:55:52;;;;;;;;;;;6.70;96.40;;;;;;5011698;28;19925;-71
2022/01/05 01:58:18;;;;;;;;;;;6.70;96.50;;;;;;5010531;28;19914;-71
2022/01/05 02:00:43;;;;;;;;;;;6.70;96.60;;;;;;5011587;28;20260;-71
2022/01/05 02:03:11;;;;;;;;;;;6.80;96.50;;;;;;5011920;28;20000;-70
2022/01/05 02:05:37;;;;;;;;;;;6.80;96.40;;;;;;5011502;28;19925;-71
2022/01/05 02:08:03;;;;;;;;;;;6.80;96.30;;;;;;5011032;28;19918;-71
2022/01/05 02:10:28;;;;;;;;;;;6.80;96.40;;;;;;5016216;28;19925;-70
2022/01/05 02:12:54;;;;;;;;;;;6.80;96.40;;;;;;5031196;28;20322;-70
2022/01/05 02:15:20;;;;;;;;;;;6.70;96.20;;;;;;5031578;28;20297;-70
2022/01/05 02:18:09;;;;;;;;;;;6.70;96.40;;;;;;5028952;28;20034;-69
2022/01/05 02:20:35;;;;;;;;;;;6.60;96.60;;;;;;5011231;28;19929;-71
2022/01/05 02:23:00;;;;;;;;;;;6.70;96.50;;;;;;5011430;28;19913;-70
2022/01/05 02:25:26;;;;;;;;;;;6.70;96.40;;;;;;5023007;28;19921;-71
2022/01/05 02:27:53;;;;;;;;;;;6.70;96.50;;;;;;5024163;28;19926;-70
2022/01/05 02:30:23;;;;;;;;;;;6.70;96.50;;;;;;5011746;28;20000;-70
2022/01/05 02:32:50;;;;;;;;;;;6.80;96.50;;;;;;5011312;28;19932;-71
2022/01/05 02:35:15;;;;;;;;;;;6.80;96.50;;;;;;5010128;28;19948;-71
2022/01/05 02:37:45;;;;;;;;;;;6.80;96.50;;;;;;5011148;28;19928;-71
2022/01/05 02:40:11;;;;;;;;;;;6.70;96.60;;;;;;5011145;28;19924;-71
2022/01/05 02:42:37;;;;;;;;;;;6.60;96.70;;;;;;5010292;28;20071;-72
2022/01/05 02:45:03;;;;;;;;;;;6.60;96.70;;;;;;5011660;28;20307;-72
2022/01/05 02:47:28;;;;;;;;;;;6.60;96.80;;;;;;5022603;28;19928;-71
2022/01/05 02:49:57;;;;;;;;;;;6.60;96.70;;;;;;5030725;28;19924;-70
2022/01/05 02:52:23;;;;;;;;;;;6.60;96.70;;;;;;5034685;28;19963;-70
2022/01/05 02:54:48;;;;;;;;;;;6.70;96.60;;;;;;5034698;28;20306;-70
2022/01/05 02:57:14;;;;;;;;;;;6.60;96.80;;;;;;5034388;28;19951;-71
2022/01/05 02:59:40;;;;;;;;;;;6.60;96.70;;;;;;5034682;28;19917;-69
2022/01/05 03:02:05;;;;;;;;;;;6.70;96.70;;;;;;5034715;28;20279;-70
2022/01/05 03:04:30;;;;;;;;;;;6.60;96.60;;;;;;5034360;28;19917;-70
2022/01/05 03:06:56;;;;;;;;;;;6.60;96.60;;;;;;5033303;28;19925;-70
2022/01/05 03:09:21;;;;;;;;;;;6.50;96.60;;;;;;5032655;28;20035;-70
2022/01/05 03:11:47;;;;;;;;;;;6.50;96.70;;;;;;5034853;28;19901;-69
2022/01/05 03:14:12;;;;;;;;;;;6.40;96.70;;;;;;5034289;28;19913;-71
2022/01/05 03:16:38;;;;;;;;;;;6.40;96.80;;;;;;5033378;28;20309;-71
2022/01/05 03:19:03;;;;;;;;;;;6.50;96.90;;;;;;5031399;28;19921;-70
2022/01/05 03:21:29;;;;;;;;;;;6.50;96.80;;;;;;5033107;28;19960;-70
2022/01/05 03:23:54;;;;;;;;;;;6.50;96.70;;;;;;5033064;28;19909;-71
2022/01/05 03:26:20;;;;;;;;;;;6.50;96.70;;;;;;5032117;28;19921;-71
2022/01/05 03:28:45;;;;;;;;;;;6.50;96.60;;;;;;5034381;28;20329;-70
2022/01/05 03:31:11;;;;;;;;;;;6.50;96.50;;;;;;5033579;28;19921;-70
2022/01/05 03:33:36;;;;;;;;;;;6.40;96.70;;;;;;5032869;28;20347;-70
2022/01/05 03:36:02;;;;;;;;;;;6.40;96.60;;;;;;5033628;28;20227;-70
2022/01/05 03:38:28;;;;;;;;;;;6.30;96.70;;;;;;5032649;28;19914;-70
2022/01/05 03:40:53;;;;;;;;;;;6.60;96.80;;;;;;5033864;28;19913;-70
2022/01/05 03:43:19;;;;;;;;;;;6.30;96.70;;;;;;5033990;28;20366;-70
2022/01/05 03:45:45;;;;;;;;;;;6.30;96.80;;;;;;5030759;28;20399;-71
2022/01/05 03:48:11;;;;;;;;;;;6.20;96.70;;;;;;5033121;28;19920;-71
2022/01/05 03:50:37;;;;;;;;;;;6.30;96.80;;;;;;5033684;28;19944;-71
2022/01/05 03:53:04;;;;;;;;;;;6.20;96.70;;;;;;5033784;28;19924;-72
2022/01/05 03:55:30;;;;;;;;;;;6.20;96.80;;;;;;5032684;28;19924;-70
2022/01/05 03:57:56;;;;;;;;;;;6.10;96.90;;;;;;5033622;28;19917;-71
2022/01/05 04:00:21;;;;;;;;;;;6.20;96.80;;;;;;5033731;28;20008;-70
2022/01/05 04:02:47;;;;;;;;;;;6.10;96.80;;;;;;5033729;28;20347;-70
2022/01/05 04:05:12;;;;;;;;;;;6.20;96.80;;;;;;5033381;28;19983;-69
2022/01/05 04:07:38;;;;;;;;;;;6.10;96.80;;;;;;5015534;28;19940;-70
2022/01/05 04:10:04;;;;;;;;;;;6.10;96.70;;;;;;5013565;28;20012;-70
2022/01/05 04:12:29;;;;;;;;;;;6.10;96.70;;;;;;5012570;28;19920;-70
2022/01/05 04:14:55;;;;;;;;;;;6.20;96.60;;;;;;5012955;28;19968;-70
2022/01/05 04:17:21;;;;;;;;;;;6.10;96.50;;;;;;5027103;28;20343;-69
2022/01/05 04:19:47;;;;;;;;;;;6.10;96.40;;;;;;5032076;28;20327;-70
2022/01/05 04:22:12;;;;;;;;;;;6.00;96.40;;;;;;5033356;28;19955;-70
2022/01/05 04:24:37;;;;;;;;;;;6.00;96.40;;;;;;5028426;28;20379;-71
2022/01/05 04:27:04;;;;;;;;;;;6.10;96.40;;;;;;5033388;28;19957;-71
2022/01/05 04:29:29;;;;;;;;;;;6.00;96.20;;;;;;5032967;28;20405;-71
2022/01/05 04:31:55;;;;;;;;;;;6.00;96.30;;;;;;5032994;28;19917;-71
2022/01/05 04:34:20;;;;;;;;;;;6.00;96.20;;;;;;5027662;28;19926;-70
2022/01/05 04:36:46;;;;;;;;;;;6.00;96.20;;;;;;5012827;28;19928;-72
2022/01/05 04:39:12;;;;;;;;;;;5.90;96.20;;;;;;5013261;28;20004;-71
2022/01/05 04:41:37;;;;;;;;;;;5.80;96.20;;;;;;5011946;28;19914;-71
2022/01/05 04:44:03;;;;;;;;;;;5.90;96.20;;;;;;5013006;28;19914;-71
2022/01/05 04:46:28;;;;;;;;;;;5.90;96.20;;;;;;5012649;28;19917;-70
2022/01/05 04:48:54;;;;;;;;;;;5.80;96.10;;;;;;5012743;28;19924;-70
2022/01/05 04:51:19;;;;;;;;;;;5.70;96.10;;;;;;5013341;28;19909;-71
2022/01/05 04:53:45;;;;;;;;;;;5.80;96.20;;;;;;5012900;28;20188;-69
2022/01/05 04:56:10;;;;;;;;;;;5.60;96.00;;;;;;5016472;28;19971;-71
2022/01/05 04:58:36;;;;;;;;;;;5.70;96.10;;;;;;5031557;28;19913;-71
2022/01/05 05:01:01;;;;;;;;;;;5.60;96.10;;;;;;5011639;28;19918;-70
2022/01/05 05:03:26;;;;;;;;;;;5.60;95.90;;;;;;5012360;28;19914;-71
2022/01/05 05:05:52;;;;;;;;;;;5.70;95.80;;;;;;5012768;28;19910;-71
2022/01/05 05:08:17;;;;;;;;;;;5.70;95.80;;;;;;5012394;28;19914;-71
2022/01/05 05:10:43;;;;;;;;;;;5.60;95.80;;;;;;5014238;28;19918;-71
2022/01/05 05:13:09;;;;;;;;;;;5.60;96.00;;;;;;5011517;28;19917;-70
2022/01/05 05:15:34;;;;;;;;;;;5.50;95.80;;;;;;5023569;28;19920;-71
2022/01/05 05:18:00;;;;;;;;;;;5.60;95.80;;;;;;5031414;28;20004;-70
2022/01/05 05:20:25;;;;;;;;;;;5.60;95.80;;;;;;5030439;28;19980;-70
2022/01/05 05:22:51;;;;;;;;;;;5.60;95.70;;;;;;5031694;28;20370;-69
2022/01/05 05:25:17;;;;;;;;;;;5.60;95.70;;;;;;5031740;28;19917;-70
2022/01/05 05:27:42;;;;;;;;;;;5.60;95.60;;;;;;5031698;28;20004;-70
2022/01/05 05:30:08;;;;;;;;;;;5.60;95.50;;;;;;5025969;28;19963;-70
2022/01/05 05:32:33;;;;;;;;;;;5.60;95.40;;;;;;5011767;28;20335;-70
2022/01/05 05:34:58;;;;;;;;;;;5.50;95.30;;;;;;5021942;28;19941;-70
2022/01/05 05:37:24;;;;;;;;;;;5.60;95.10;;;;;;5031937;28;19913;-69
2022/01/05 05:39:49;;;;;;;;;;;5.50;94.90;;;;;;5031574;28;19932;-70
2022/01/05 05:42:15;;;;;;;;;;;5.50;94.90;;;;;;5031017;28;20119;-70
2022/01/05 05:44:40;;;;;;;;;;;5.50;94.80;;;;;;5030830;28;19917;-70
2022/01/05 05:47:06;;;;;;;;;;;5.50;94.70;;;;;;5026976;28;19944;-70
2022/01/05 05:49:32;;;;;;;;;;;5.50;94.60;;;;;;5023326;28;19921;-70
2022/01/05 05:51:57;;;;;;;;;;;5.50;94.60;;;;;;5011818;28;19921;-70
2022/01/05 05:54:23;;;;;;;;;;;5.50;94.50;;;;;;5011716;28;19956;-70
2022/01/05 05:56:48;;;;;;;;;;;5.50;94.40;;;;;;5012086;28;19909;-70
2022/01/05 05:59:14;;;;;;;;;;;5.50;94.40;;;;;;5011859;28;20321;-70
2022/01/05 06:01:39;;;;;;;;;;;5.50;94.30;;;;;;5010399;28;19913;-70
2022/01/05 06:04:05;;;;;;;;;;;5.50;94.20;;;;;;5027036;28;20150;-70
2022/01/05 06:06:30;;;;;;;;;;;5.50;94.20;;;;;;5026300;28;19923;-70
2022/01/05 06:08:56;;;;;;;;;;;5.40;94.10;;;;;;5031706;28;19937;-70
2022/01/05 06:11:21;;;;;;;;;;;5.50;94.00;;;;;;5031076;28;19980;-70
2022/01/05 06:13:47;;;;;;;;;;;5.40;94.00;;;;;;5030917;28;20525;-70
2022/01/05 06:16:13;;;;;;;;;;;5.50;94.00;;;;;;5025882;28;19924;-70
2022/01/05 06:18:38;;;;;;;;;;;5.40;93.90;;;;;;5018237;28;20022;-70
2022/01/05 06:21:04;;;;;;;;;;;5.50;94.00;;;;;;5011464;28;20378;-70
2022/01/05 06:23:29;;;;;;;;;;;5.40;93.90;;;;;;5020857;28;19924;-70
2022/01/05 06:25:55;;;;;;;;;;;5.50;93.80;;;;;;5013684;28;20252;-70
2022/01/05 06:28:20;;;;;;;;;;;5.40;93.80;;;;;;5023044;28;19918;-71
2022/01/05 06:30:46;;;;;;;;;;;5.40;93.90;;;;;;5031075;28;20374;-70
2022/01/05 06:33:11;;;;;;;;;;;5.40;93.90;;;;;;5030140;28;19929;-71
2022/01/05 06:35:37;;;;;;;;;;;5.50;94.10;;;;;;5030938;28;20461;-71
2022/01/05 06:38:02;;;;;;;;;;;5.50;94.10;;;;;;5030150;28;20007;-71
2022/01/05 06:40:28;;;;;;;;;;;5.50;94.20;;;;;;5030715;28;19921;-72
2022/01/05 06:42:54;;;;;;;;;;;5.40;94.20;;;;;;5030733;28;19924;-68
2022/01/05 06:45:20;;;;;;;;;;;5.40;94.30;;;;;;5031082;28;19909;-71
2022/01/05 06:47:45;;;;;;;;;;;5.40;94.30;;;;;;5015604;28;19925;-72
2022/01/05 06:50:11;;;;;;;;;;;5.40;94.30;;;;;;5029445;28;20410;-71
2022/01/05 06:52:37;;;;;;;;;;;5.40;94.40;;;;;;5029674;28;19974;-70
2022/01/05 06:55:03;;;;;;;;;;;5.40;94.40;;;;;;5029458;28;19974;-72
2022/01/05 06:57:29;;;;;;;;;;;5.40;94.40;;;;;;5022944;28;20032;-71
2022/01/05 06:59:55;;;;;;;;;;;5.50;94.50;;;;;;5010991;28;19948;-71
2022/01/05 07:02:20;;;;;;;;;;;5.50;94.40;;;;;;5011278;28;19918;-72
2022/01/05 07:04:46;;;;;;;;;;;5.40;94.40;;;;;;5013003;28;19928;-72
2022/01/05 07:07:11;;;;;;;;;;;5.40;94.50;;;;;;5021978;28;20367;-71
2022/01/05 07:09:36;;;;;;;;;;;5.30;94.60;;;;;;5027160;28;19917;-71
2022/01/05 07:12:02;;;;;;;;;;;5.30;94.70;;;;;;5029768;28;19936;-71
2022/01/05 07:14:28;;;;;;;;;;;5.30;94.80;;;;;;5029821;28;19964;-75
2022/01/05 07:16:53;;;;;;;;;;;5.30;94.90;;;;;;5030312;28;19920;-75
2022/01/05 07:19:20;;;;;;;;;;;5.40;94.90;;;;;;5026996;28;20284;-75
2022/01/05 07:21:46;;;;;;;;;;;5.40;94.90;;;;;;5020688;28;19917;-71
2022/01/05 07:24:16;;;;;;;;;;;5.40;94.90;;;;;;5015427;28;20012;-73
2022/01/05 07:26:41;;;;;;;;;;;5.30;95.00;;;;;;5009580;28;19921;-72
2022/01/05 07:29:07;;;;;;;;;;;5.30;94.90;;;;;;5011305;28;19928;-71
2022/01/05 07:31:32;;;;;;;;;;;5.40;95.00;;;;;;5025389;28;20402;-72
2022/01/05 07:33:58;;;;;;;;;;;5.40;95.00;;;;;;5010539;28;20351;-73
2022/01/05 07:36:23;;;;;;;;;;;5.30;95.00;;;;;;5014685;28;19913;-71
2022/01/05 07:38:49;;;;;;;;;;;5.30;95.00;;;;;;5015500;28;20358;-72
2022/01/05 07:41:14;;;;;;;;;;;5.30;95.10;;;;;;5014733;28;19918;-77
2022/01/05 07:43:40;;;;;;;;;;;5.30;95.30;;;;;;5014491;28;19913;-76
2022/01/05 07:46:05;;;;;;;;;;;5.40;95.80;;;;;;5013461;28;19917;-75
2022/01/05 07:48:31;;;;;;;;;;;5.50;95.60;;;;;;5015200;28;20350;-79
2022/01/05 07:50:56;;;;;;;;;;;5.50;95.30;;;;;;5015640;28;19914;-76
2022/01/05 07:53:22;;;;;;;;;;;5.50;95.30;;;;;;5013996;28;19929;-77
2022/01/05 07:55:47;;;;;;;;;;;5.50;95.30;;;;;;5013872;28;19918;-74
2022/01/05 07:58:13;;;;;;;;;;;5.50;95.20;;;;;;5012889;28;19921;-75
2022/01/05 08:00:39;;;;;;;;;;;5.50;95.20;;;;;;5019315;28;20012;-74
2022/01/05 08:03:04;;;;;;;;;;;5.40;94.90;;;;;;5031719;28;19909;-76
2022/01/05 08:05:30;;;;;;;;;;;5.40;94.90;;;;;;5033794;28;19921;-76
2022/01/05 08:07:55;;;;;;;;;;;5.30;94.90;;;;;;5029799;28;19929;-75
2022/01/05 08:10:21;;;;;;;;;;;5.30;95.00;;;;;;5020764;28;20397;-76
2022/01/05 08:12:46;;;;;;;;;;;5.40;95.00;;;;;;5020000;28;20354;-74
2022/01/05 08:15:12;;;;;;;;;;;5.20;95.00;;;;;;5012857;28;19913;-76
2022/01/05 08:17:38;;;;;;;;;;;5.30;95.00;;;;;;5012713;28;19917;-76
2022/01/05 08:20:06;;;;;;;;;;;5.40;95.10;;;;;;5013518;28;20391;-75
2022/01/05 08:22:32;;;;;;;;;;;5.40;95.00;;;;;;5021682;28;19917;-74
2022/01/05 08:24:57;;;;;;;;;;;5.40;95.00;;;;;;5032958;28;19917;-74
2022/01/05 08:27:23;;;;;;;;;;;5.40;95.00;;;;;;5032068;28;19921;-75
2022/01/05 08:29:48;;;;;;;;;;;5.40;94.90;;;;;;5032981;28;19963;-76
2022/01/05 08:32:14;;;;;;;;;;;5.50;95.00;;;;;;5021381;28;20446;-75
2022/01/05 08:34:40;;;;;;;;;;;5.60;94.80;;;;;;5013809;28;20265;-74
2022/01/05 08:37:05;;;;;;;;;;;5.50;94.70;;;;;;5014520;28;19917;-75
2022/01/05 08:39:31;;;;;;;;;;;5.50;94.80;;;;;;5013985;28;20359;-75
2022/01/05 08:41:56;;;;;;;;;;;5.50;94.70;;;;;;5021616;28;19917;-74
2022/01/05 08:44:22;;;;;;;;;;;5.60;94.80;;;;;;5033753;28;19921;-74
2022/01/05 08:46:47;;;;;;;;;;;5.70;94.70;;;;;;5027483;28;20105;-74
2022/01/05 08:49:14;;;;;;;;;;;5.70;94.50;;;;;;5012622;28;19924;-75
2022/01/05 08:51:39;;;;;;;;;;;5.80;94.40;;;;;;5012524;28;19913;-71
2022/01/05 08:54:05;;;;;;;;;;;5.90;94.40;;;;;;5012294;28;20267;-71
2022/01/05 08:56:31;;;;;;;;;;;5.90;94.30;;;;;;5016693;28;20019;-72
2022/01/05 08:58:57;;;;;;;;;;;5.80;94.20;;;;;;5032073;28;20059;-68
2022/01/05 09:01:23;;;;;;;;;;;5.80;94.20;;;;;;5031447;28;20319;-72
2022/01/05 09:03:48;;;;;;;;;;;5.80;94.10;;;;;;5029691;28;19957;-72
2022/01/05 09:06:14;;;;;;;;;;;5.90;94.10;;;;;;5012293;28;20024;-71
2022/01/05 09:08:40;;;;;;;;;;;5.90;94.10;;;;;;5018046;28;19918;-75
2022/01/05 09:11:08;;;;;;;;;;;5.90;94.10;;;;;;4994062;28;19933;-77
2022/01/05 09:13:34;;;;;;;;;;;5.90;94.20;;;;;;4992574;28;19953;-74
2022/01/05 09:15:59;;;;;;;;;;;5.90;94.20;;;;;;4994060;28;19964;-75
2022/01/05 09:18:25;;;;;;;;;;;6.00;94.20;;;;;;4996844;28;19983;-75
2022/01/05 09:20:50;;;;;;;;;;;6.00;94.10;;;;;;5002350;28;20284;-74
2022/01/05 09:23:16;;;;;;;;;;;6.10;94.20;;;;;;4992225;28;19918;-75
2022/01/05 09:25:42;;;;;;;;;;;6.10;94.00;;;;;;5002203;28;19922;-74
2022/01/05 09:28:08;;;;;;;;;;;6.10;94.10;;;;;;5012342;28;20343;-74
2022/01/05 09:30:34;;;;;;;;;;;6.20;94.10;;;;;;5011947;28;19909;-75
2022/01/05 09:32:59;;;;;;;;;;;6.30;94.10;;;;;;5013604;28;20342;-75
2022/01/05 09:35:26;;;;;;;;;;;6.30;94.00;;;;;;5005768;28;19918;-75
2022/01/05 09:43:10;;;;;;;;;;;6.30;94.00;;;;;;5011944;28;20409;-75
2022/01/05 09:45:36;;;;;;;;;;;6.20;94.00;;;;;;5017641;28;20164;-75
2022/01/05 09:48:17;;;;;;;;;;;6.30;94.10;;;;;;5022229;28;19940;-74
2022/01/05 09:51:03;;;;;;;;;;;6.50;94.00;;;;;;5011766;28;19913;-74
2022/01/05 09:53:30;;;;;;;;;;;6.50;94.10;;;;;;5011791;28;19933;-75
2022/01/05 09:55:55;;;;;;;;;;;6.40;94.30;;;;;;5011834;28;19913;-74
2022/01/05 09:58:21;;;;;;;;;;;6.40;94.50;;;;;;5011889;28;20276;-77
2022/01/05 10:00:47;;;;;;;;;;;6.40;94.50;;;;;;5011053;28;19928;-76
2022/01/05 10:03:14;;;;;;;;;;;6.40;94.40;;;;;;5011773;28;19914;-73
2022/01/05 10:05:40;;;;;;;;;;;6.40;94.50;;;;;;5027343;28;19918;-73
2022/01/05 10:08:06;;;;;;;;;;;6.40;94.50;;;;;;5012422;28;19925;-74
2022/01/05 10:10:31;;;;;;;;;;;6.40;94.50;;;;;;5010516;28;20279;-75
2022/01/05 10:12:57;;;;;;;;;;;6.40;94.50;;;;;;5011225;28;19917;-73
2022/01/05 10:15:24;;;;;;;;;;;6.50;94.50;;;;;;5025742;28;19927;-74
2022/01/05 10:17:49;;;;;;;;;;;6.40;94.20;;;;;;5028291;28;20559;-76
2022/01/05 10:20:15;;;;;;;;;;;6.50;94.40;;;;;;5016190;28;19922;-73
2022/01/05 10:22:42;;;;;;;;;;;6.40;94.20;;;;;;5011067;28;19913;-73
2022/01/05 10:25:15;;;;;;;;;;;6.20;94.80;;;;;;5019088;28;20294;-77
2022/01/05 10:27:41;;;;;;;;;;;6.30;95.30;;;;;;5030423;28;20729;-75
2022/01/05 10:30:10;;;;;;;;;;;6.10;95.90;;;;;;5030465;28;20028;-76
2022/01/05 10:32:36;;;;;;;;;;;6.20;96.50;;;;;;5030905;28;20405;-75
2022/01/05 10:35:08;;;;;;;;;;;6.00;97.00;;;;;;5021217;28;19922;-76
2022/01/05 10:37:34;;;;;;;;;;;6.00;97.20;;;;;;5011530;28;19924;-75
2022/01/05 10:40:11;;;;;;;;;;;6.00;97.30;;;;;;5010913;28;19914;-74
2022/01/05 10:42:37;;;;;;;;;;;5.90;97.50;;;;;;5011655;28;19913;-76
2022/01/05 10:45:05;;;;;;;;;;;5.80;97.40;;;;;;5021638;28;20230;-74
2022/01/05 10:47:32;;;;;;;;;;;5.80;97.50;;;;;;5015963;28;19921;-72
2022/01/05 10:49:57;;;;;;;;;;;5.90;97.60;;;;;;5017987;28;19921;-75
2022/01/05 10:52:24;;;;;;;;;;;5.80;97.50;;;;;;5020672;28;19925;-78
2022/01/05 10:54:50;;;;;;;;;;;5.90;97.90;;;;;;5020815;28;19925;-76
2022/01/05 10:57:16;;;;;;;;;;;5.90;97.50;;;;;;5030027;28;20290;-78
2022/01/05 10:59:43;;;;;;;;;;;5.90;97.50;;;;;;5030023;28;20016;-78
2022/01/05 11:02:28;;;;;;;;;;;5.90;97.60;;;;;;5029798;28;20274;-73
2022/01/05 11:05:06;;;;;;;;;;;6.00;97.60;;;;;;5027593;28;19917;-74
2022/01/05 11:07:34;;;;;;;;;;;5.90;97.50;;;;;;5030538;28;19922;-75
2022/01/05 11:10:01;;;;;;;;;;;6.00;97.60;;;;;;5030607;28;19913;-76
2022/01/05 11:12:34;;;;;;;;;;;5.90;97.30;;;;;;5032645;28;19957;-75
2022/01/05 11:15:18;;;;;;;;;;;5.90;97.50;;;;;;5031959;28;20550;-77
2022/01/05 11:18:02;;;;;;;;;;;5.90;97.70;;;;;;5033312;28;20328;-75
2022/01/05 11:20:28;;;;;;;;;;;5.90;98.00;;;;;;5030849;28;20008;-78
2022/01/05 11:22:53;;;;;;;;;;;6.00;98.10;;;;;;5034175;28;20012;-77
2022/01/05 11:25:19;;;;;;;;;;;6.00;98.10;;;;;;5033535;28;19917;-77
2022/01/05 11:27:44;;;;;;;;;;;5.90;98.30;;;;;;5033024;28;19939;-76
2022/01/05 11:30:10;;;;;;;;;;;5.80;98.70;;;;;;5031198;28;19913;-77
2022/01/05 11:32:37;;;;;;;;;;;5.50;99.30;;;;;;5033566;28;19929;-82
2022/01/05 11:35:07;;;;;;;;;;;5.40;99.40;;;;;;5031581;28;20228;-79
2022/01/05 11:37:34;;;;;;;;;;;5.50;99.50;;;;;;5034203;28;19987;-74
2022/01/05 11:40:02;;;;;;;;;;;5.50;99.70;;;;;;5033898;28;19967;-71
2022/01/05 11:42:34;;;;;;;;;;;5.30;99.50;;;;;;5033620;28;21254;-76
2022/01/05 11:45:00;;;;;;;;;;;5.30;99.70;;;;;;5029183;28;19909;-77
2022/01/05 11:47:26;;;;;;;;;;;5.30;99.80;;;;;;5032729;28;19927;-76
2022/01/05 11:49:52;;;;;;;;;;;5.10;99.90;;;;;;5018556;28;19976;-76
2022/01/05 11:52:18;;;;;;;;;;;5.10;99.90;;;;;;5014332;28;19968;-74
2022/01/05 11:55:00;;;;;;;;;;;5.20;99.90;;;;;;5014387;28;20355;-74
2022/01/05 11:57:25;;;;;;;;;;;5.30;99.90;;;;;;5014376;28;19940;-74
2022/01/05 11:59:51;;;;;;;;;;;5.60;99.90;;;;;;5026430;28;19913;-71
2022/01/05 12:03:50;;;;;;;5.75;3.33;;;5.70;99.90;;;;;;5088370;27;20811;-77
2022/01/05 12:06:17;;;;;;;6.47;3.47;;;5.70;99.90;;;;;;5088197;28;20247;-74
2022/01/05 12:08:54;;;;;;;4.37;2.70;;;5.60;99.90;;;;;;5088647;28;20056;-80
2022/01/05 12:11:38;;;;;;;3.85;2.80;;;5.70;99.80;;;;;;5087796;28;20042;-76
2022/01/05 12:14:26;;;;;;;6.45;2.47;;;5.80;99.90;;;;;;5075186;28;20301;-74
2022/01/05 12:17:01;;;;;;;5.88;2.55;;;5.90;99.90;;;;;;5065781;28;20146;-77
2022/01/05 12:19:52;;;;;;;3.65;2.15;;;6.00;99.70;;;;;;5066984;28;20049;-77
2022/01/05 12:22:30;;;;;;;3.50;2.20;;;5.90;99.80;;;;;;5064783;28;20041;-77
2022/01/05 12:25:00;;;;;;;4.07;1.80;;;5.90;99.80;;;;;;5067490;28;20029;-76
2022/01/05 12:27:32;;;;;;;4.70;2.30;;;6.10;99.90;;;;;;5067355;28;20354;-76
2022/01/05 12:29:58;;;;;;;5.43;1.83;;;6.10;99.90;;;;;;5066984;28;20472;-75
2022/01/05 12:32:34;;;;;;;4.13;2.10;;;6.20;99.70;;;;;;5068477;28;20037;-75
2022/01/05 12:35:06;;;;;;;4.45;1.90;;;6.00;99.60;;;;;;5067427;28;20049;-76
2022/01/05 12:37:58;;;;;;;4.05;1.75;;;6.10;99.70;;;;;;5067246;28;20379;-75
2022/01/05 12:40:42;;;;;;;4.18;1.85;;;6.10;99.60;;;;;;5068439;28;20021;-77
2022/01/05 12:43:10;;;;;;;3.50;1.80;;;6.20;99.60;;;;;;5067344;28;20056;-76
2022/01/05 12:45:48;;;;;;;7.13;1.98;;;6.20;99.70;;;;;;5067285;28;20106;-78
2022/01/05 12:48:35;;;;;;;2.65;1.48;;;6.20;99.60;;;;;;5068790;28;20094;-77
2022/01/05 12:51:16;;;;;;;7.03;1.63;;;6.20;99.60;;;;;;5067909;28;20120;-75
2022/01/05 12:54:03;;;;;;;1.40;1.10;;;6.30;99.60;;;;;;5065331;28;20041;-73
2022/01/05 12:56:34;;;;;;;3.97;1.70;;;6.40;99.70;;;;;;5067300;28;20032;-75
2022/01/05 12:59:02;;;;;;;4.07;1.48;;;6.40;99.70;;;;;;5066808;28;20273;-78
2022/01/05 13:01:29;;;;;;;5.50;1.73;;;6.40;99.60;;;;;;5067773;28;20052;-77
2022/01/05 13:03:57;;;;;;;9.80;2.97;;;6.30;99.70;;;;;;5067585;28;20040;-77
2022/01/05 13:06:24;;;;;;;5.38;1.77;;;6.30;99.80;;;;;;5068228;28;20017;-77
2022/01/05 13:08:55;;;;;;;5.93;1.90;;;6.30;99.90;;;;;;5068309;28;20043;-77
2022/01/05 13:11:40;;;;;;;7.22;1.67;;;6.40;99.90;;;;;;5067767;28;20094;-77
2022/01/05 13:14:23;;;;;;;4.88;1.60;;;6.40;99.80;;;;;;5055823;28;20358;-77
2022/01/05 13:16:51;;;;;;;6.80;1.63;;;6.50;99.70;;;;;;5053844;28;20036;-75
2022/01/05 13:19:34;;;;;;;5.30;2.00;;;6.40;99.70;;;;;;5054329;28;20390;-76
2022/01/05 13:22:27;;;;;;;5.57;1.23;;;6.40;99.70;;;;;;5054559;28;20128;-76
2022/01/05 13:24:55;;;;;;;7.40;2.10;;;6.40;99.60;;;;;;5054081;28;20463;-76
2022/01/05 13:27:23;;;;;;;10.90;2.20;;;6.50;99.70;;;;;;5054863;28;20499;-76
2022/01/05 13:29:50;;;;;;;14.23;1.90;;;6.30;99.90;;;;;;5054279;28;20068;-75
2022/01/05 13:32:18;;;;;;;9.67;1.87;;;6.20;99.90;;;;;;5054366;28;20377;-76
2022/01/05 13:34:47;;;;;;;7.45;1.85;;;6.20;99.90;;;;;;5054387;28;20029;-74
2022/01/05 13:37:27;;;;;;;7.75;1.73;;;6.30;99.90;;;;;;5053774;28;20113;-76
2022/01/05 13:39:53;;;;;;;6.68;1.85;;;6.40;99.90;;;;;;5054403;28;20036;-74
2022/01/05 13:42:34;;;;;;;9.00;2.50;;;6.50;99.90;;;;;;5052976;28;20304;-74
2022/01/05 13:45:02;;;;;;;12.75;2.15;;;6.60;99.90;;;;;;5052307;28;20037;-74
2022/01/05 13:47:28;;;;;;;7.50;1.95;;;6.60;99.90;;;;;;5051781;28;20370;-74
2022/01/05 13:50:11;;;;;;;7.35;2.67;;;6.70;99.90;;;;;;5053736;28;20025;-75
2022/01/05 13:52:37;;;;;;;11.15;2.20;;;6.80;99.90;;;;;;5053771;28;20037;-80
2022/01/05 13:55:03;;;;;;;5.85;1.98;;;6.90;99.90;;;;;;5053439;28;20044;-76
2022/01/05 13:57:33;;;;;;;10.60;2.22;;;6.90;99.90;;;;;;5051526;28;20029;-74
2022/01/05 14:00:02;;;;;;;9.07;1.83;;;7.00;99.90;;;;;;5052840;28;20064;-73
2022/01/05 14:02:29;;;;;;;12.52;3.20;;;6.90;99.90;;;;;;5044508;28;20046;-72
2022/01/05 14:04:58;;;;;;;8.88;2.45;;;7.10;99.90;;;;;;5031611;28;20034;-70
2022/01/05 14:07:27;;;;;;;4.85;1.73;;;6.90;99.90;;;;;;5032599;28;20026;-71
2022/01/05 14:10:02;;;;;;;8.00;2.15;;;6.90;99.90;;;;;;5046704;28;20056;-72
2022/01/05 14:12:31;;;;;;;30.45;11.13;;;6.80;99.90;;;;;;5052859;28;20031;-72
2022/01/05 14:14:58;;;;;;;10.25;2.30;;;6.80;99.90;;;;;;5052242;28;20044;-71
2022/01/05 14:17:26;;;;;;;10.63;2.33;;;6.80;99.90;;;;;;5052068;28;20636;-71
2022/01/05 14:20:22;;;;;;;9.52;1.80;;;6.80;99.90;;;;;;5048320;28;20599;-72
2022/01/05 14:23:07;;;;;;;13.05;3.03;;;6.90;99.90;;;;;;5052312;28;20037;-72